sensor_id;sensor_type;location;lat;lon;timestamp;pressure;altitude;pressure_sealevel;temperature;humidity
56400;BME280;42298;53.638;9.876;2023-09-19T00:02:04;100172.31;;;18.38;68.98
56400;BME280;42298;53.638;9.876;2023-09-19T00:04:31;100180.63;;;18.36;69.05
56400;BME280;42298;53.638;9.876;2023-09-19T00:06:57;100176.28;;;18.35;69.16
56400;BME280;42298;53.638;9.876;2023-09-19T00:09:22;100185.19;;;18.36;68.99
56400;BME280;42298;53.638;9.876;2023-09-19T00:11:51;100180.91;;;18.28;69.20
56400;BME280;42298;53.638;9.876;2023-09-19T00:14:16;100180.09;;;18.28;69.48
56400;BME280;42298;53.638;9.876;2023-09-19T00:16:42;100184.28;;;18.24;69.49
56400;BME280;42298;53.638;9.876;2023-09-19T00:19:07;100183.59;;;18.28;69.42
56400;BME280;42298;53.638;9.876;2023-09-19T00:21:34;100186.47;;;18.33;69.26
56400;BME280;42298;53.638;9.876;2023-09-19T00:23:59;100186.09;;;18.30;69.07
56400;BME280;42298;53.638;9.876;2023-09-19T00:26:25;100192.16;;;18.25;69.54
56400;BME280;42298;53.638;9.876;2023-09-19T00:28:52;100187.78;;;18.24;69.65
56400;BME280;42298;53.638;9.876;2023-09-19T00:31:17;100193.44;;;18.23;69.62
56400;BME280;42298;53.638;9.876;2023-09-19T00:33:43;100195.06;;;18.24;69.65
56400;BME280;42298;53.638;9.876;2023-09-19T00:36:08;100196.25;;;18.28;69.89
56400;BME280;42298;53.638;9.876;2023-09-19T00:38:34;100191.16;;;18.19;69.68
56400;BME280;42298;53.638;9.876;2023-09-19T00:41:00;100193.25;;;18.17;69.95
56400;BME280;42298;53.638;9.876;2023-09-19T00:43:26;100197.00;;;18.16;69.95
56400;BME280;42298;53.638;9.876;2023-09-19T00:45:54;100194.16;;;18.11;70.22
56400;BME280;42298;53.638;9.876;2023-09-19T00:48:24;100196.63;;;18.13;70.05
56400;BME280;42298;53.638;9.876;2023-09-19T00:50:50;100202.69;;;18.08;70.27
56400;BME280;42298;53.638;9.876;2023-09-19T00:53:18;100207.72;;;18.05;70.40
56400;BME280;42298;53.638;9.876;2023-09-19T00:55:45;100212.84;;;18.06;70.36
56400;BME280;42298;53.638;9.876;2023-09-19T00:58:11;100218.69;;;18.03;70.56
56400;BME280;42298;53.638;9.876;2023-09-19T01:00:37;100215.19;;;18.03;70.70
56400;BME280;42298;53.638;9.876;2023-09-19T01:03:03;100210.63;;;18.03;70.73
56400;BME280;42298;53.638;9.876;2023-09-19T01:05:31;100215.41;;;18.01;70.52
56400;BME280;42298;53.638;9.876;2023-09-19T01:07:56;100211.22;;;18.05;70.64
56400;BME280;42298;53.638;9.876;2023-09-19T01:10:22;100216.06;;;17.96;70.65
56400;BME280;42298;53.638;9.876;2023-09-19T01:18:49;100212.72;;;18.01;70.38
56400;BME280;42298;53.638;9.876;2023-09-19T01:30:17;100231.78;;;17.99;71.07
56400;BME280;42298;53.638;9.876;2023-09-19T01:32:44;100223.63;;;17.88;71.01
56400;BME280;42298;53.638;9.876;2023-09-19T01:35:11;100225.69;;;17.86;71.35
56400;BME280;42298;53.638;9.876;2023-09-19T01:37:38;100215.56;;;17.81;71.12
56400;BME280;42298;53.638;9.876;2023-09-19T01:40:07;100235.06;;;17.83;71.18
56400;BME280;42298;53.638;9.876;2023-09-19T01:42:45;100233.59;;;17.81;70.98
56400;BME280;42298;53.638;9.876;2023-09-19T01:45:33;100236.94;;;17.83;70.84
56400;BME280;42298;53.638;9.876;2023-09-19T01:51:00;100240.91;;;17.73;70.63
56400;BME280;42298;53.638;9.876;2023-09-19T01:54:02;100239.47;;;17.71;70.46
56400;BME280;42298;53.638;9.876;2023-09-19T01:56:42;100244.44;;;17.74;70.58
56400;BME280;42298;53.638;9.876;2023-09-19T01:59:13;100238.03;;;17.68;70.22
56400;BME280;42298;53.638;9.876;2023-09-19T02:01:42;100239.91;;;17.68;69.84
56400;BME280;42298;53.638;9.876;2023-09-19T02:04:10;100240.56;;;17.63;70.00
56400;BME280;42298;53.638;9.876;2023-09-19T02:06:35;100254.03;;;17.63;70.05
56400;BME280;42298;53.638;9.876;2023-09-19T02:09:04;100251.53;;;17.62;69.98
56400;BME280;42298;53.638;9.876;2023-09-19T02:11:29;100257.81;;;17.55;69.67
56400;BME280;42298;53.638;9.876;2023-09-19T02:13:55;100264.06;;;17.49;69.67
56400;BME280;42298;53.638;9.876;2023-09-19T02:16:20;100273.38;;;17.53;69.84
56400;BME280;42298;53.638;9.876;2023-09-19T02:18:49;100266.16;;;17.47;69.71
56400;BME280;42298;53.638;9.876;2023-09-19T02:21:16;100273.84;;;17.44;69.25
56400;BME280;42298;53.638;9.876;2023-09-19T02:23:44;100267.69;;;17.36;69.47
56400;BME280;42298;53.638;9.876;2023-09-19T02:26:10;100272.25;;;17.36;69.50
56400;BME280;42298;53.638;9.876;2023-09-19T02:28:37;100266.91;;;17.29;69.63
56400;BME280;42298;53.638;9.876;2023-09-19T02:31:02;100261.50;;;17.29;69.96
56400;BME280;42298;53.638;9.876;2023-09-19T02:33:30;100264.44;;;17.21;70.19
56400;BME280;42298;53.638;9.876;2023-09-19T02:35:57;100268.59;;;17.17;70.57
56400;BME280;42298;53.638;9.876;2023-09-19T02:38:23;100280.38;;;17.23;70.64
56400;BME280;42298;53.638;9.876;2023-09-19T02:40:51;100292.78;;;17.24;70.63
56400;BME280;42298;53.638;9.876;2023-09-19T02:43:16;100281.03;;;17.18;70.94
56400;BME280;42298;53.638;9.876;2023-09-19T02:45:42;100288.66;;;17.21;71.25
56400;BME280;42298;53.638;9.876;2023-09-19T02:48:08;100279.16;;;17.19;71.06
56400;BME280;42298;53.638;9.876;2023-09-19T02:50:33;100284.31;;;17.20;71.44
56400;BME280;42298;53.638;9.876;2023-09-19T02:52:59;100287.44;;;17.17;71.20
56400;BME280;42298;53.638;9.876;2023-09-19T02:55:24;100283.72;;;17.18;71.40
56400;BME280;42298;53.638;9.876;2023-09-19T02:57:53;100284.09;;;17.22;71.34
56400;BME280;42298;53.638;9.876;2023-09-19T03:00:22;100268.16;;;17.20;70.92
56400;BME280;42298;53.638;9.876;2023-09-19T03:02:49;100278.53;;;17.23;70.90
56400;BME280;42298;53.638;9.876;2023-09-19T03:05:14;100289.66;;;17.27;70.93
56400;BME280;42298;53.638;9.876;2023-09-19T03:07:40;100276.25;;;17.20;70.67
56400;BME280;42298;53.638;9.876;2023-09-19T03:10:08;100287.00;;;17.20;70.54
56400;BME280;42298;53.638;9.876;2023-09-19T03:12:34;100288.66;;;17.21;69.89
56400;BME280;42298;53.638;9.876;2023-09-19T03:14:59;100300.88;;;17.24;70.06
56400;BME280;42298;53.638;9.876;2023-09-19T03:17:25;100299.22;;;17.23;70.00
56400;BME280;42298;53.638;9.876;2023-09-19T03:19:50;100293.59;;;17.24;69.70
56400;BME280;42298;53.638;9.876;2023-09-19T03:22:16;100291.97;;;17.23;69.31
56400;BME280;42298;53.638;9.876;2023-09-19T03:24:41;100304.97;;;17.26;69.43
56400;BME280;42298;53.638;9.876;2023-09-19T03:27:12;100310.38;;;17.26;69.29
56400;BME280;42298;53.638;9.876;2023-09-19T03:29:39;100295.50;;;17.17;69.31
56400;BME280;42298;53.638;9.876;2023-09-19T03:32:05;100324.47;;;17.22;69.04
56400;BME280;42298;53.638;9.876;2023-09-19T03:34:30;100306.72;;;17.14;69.57
56400;BME280;42298;53.638;9.876;2023-09-19T03:36:56;100315.81;;;17.13;69.37
56400;BME280;42298;53.638;9.876;2023-09-19T03:39:21;100311.91;;;17.09;69.08
56400;BME280;42298;53.638;9.876;2023-09-19T03:41:46;100310.47;;;17.06;69.11
56400;BME280;42298;53.638;9.876;2023-09-19T03:44:12;100314.22;;;16.99;69.26
56400;BME280;42298;53.638;9.876;2023-09-19T03:46:37;100320.22;;;17.01;69.12
56400;BME280;42298;53.638;9.876;2023-09-19T03:49:03;100321.06;;;16.94;69.37
56400;BME280;42298;53.638;9.876;2023-09-19T03:51:29;100309.09;;;16.90;69.19
56400;BME280;42298;53.638;9.876;2023-09-19T03:53:54;100321.88;;;16.95;69.25
56400;BME280;42298;53.638;9.876;2023-09-19T03:56:20;100321.88;;;16.95;69.04
56400;BME280;42298;53.638;9.876;2023-09-19T03:58:45;100323.97;;;16.93;68.73
56400;BME280;42298;53.638;9.876;2023-09-19T04:01:10;100327.72;;;16.85;68.72
56400;BME280;42298;53.638;9.876;2023-09-19T04:03:36;100335.56;;;16.87;68.78
56400;BME280;42298;53.638;9.876;2023-09-19T04:06:13;100343.44;;;16.82;68.45
56400;BME280;42298;53.638;9.876;2023-09-19T04:08:39;100333.50;;;16.75;68.13
56400;BME280;42298;53.638;9.876;2023-09-19T04:11:04;100336.22;;;16.69;68.16
56400;BME280;42298;53.638;9.876;2023-09-19T04:13:29;100345.53;;;16.60;68.19
56400;BME280;42298;53.638;9.876;2023-09-19T04:15:55;100340.81;;;16.48;68.33
56400;BME280;42298;53.638;9.876;2023-09-19T04:18:21;100348.44;;;16.51;67.87
56400;BME280;42298;53.638;9.876;2023-09-19T04:20:51;100348.25;;;16.46;67.93
56400;BME280;42298;53.638;9.876;2023-09-19T04:23:17;100347.63;;;16.44;67.87
56400;BME280;42298;53.638;9.876;2023-09-19T04:25:45;100349.50;;;16.37;67.80
56400;BME280;42298;53.638;9.876;2023-09-19T04:28:10;100359.00;;;16.33;67.42
56400;BME280;42298;53.638;9.876;2023-09-19T04:30:39;100367.06;;;16.26;67.72
56400;BME280;42298;53.638;9.876;2023-09-19T04:33:07;100372.03;;;16.23;67.43
56400;BME280;42298;53.638;9.876;2023-09-19T04:35:33;100379.69;;;16.26;67.36
56400;BME280;42298;53.638;9.876;2023-09-19T04:37:59;100381.13;;;16.28;67.35
56400;BME280;42298;53.638;9.876;2023-09-19T04:40:24;100386.06;;;16.25;67.41
56400;BME280;42298;53.638;9.876;2023-09-19T04:42:55;100378.25;;;16.17;66.99
56400;BME280;42298;53.638;9.876;2023-09-19T04:45:23;100390.63;;;16.18;67.41
56400;BME280;42298;53.638;9.876;2023-09-19T04:47:49;100379.25;;;16.16;66.92
56400;BME280;42298;53.638;9.876;2023-09-19T04:50:14;100389.38;;;16.13;67.27
56400;BME280;42298;53.638;9.876;2023-09-19T04:52:41;100379.66;;;15.99;67.17
56400;BME280;42298;53.638;9.876;2023-09-19T04:55:09;100401.16;;;15.99;67.32
56400;BME280;42298;53.638;9.876;2023-09-19T04:57:34;100397.22;;;15.95;67.55
56400;BME280;42298;53.638;9.876;2023-09-19T05:00:02;100405.47;;;15.93;67.19
56400;BME280;42298;53.638;9.876;2023-09-19T05:02:31;100394.94;;;15.92;67.35
56400;BME280;42298;53.638;9.876;2023-09-19T05:04:56;100407.13;;;15.88;67.40
56400;BME280;42298;53.638;9.876;2023-09-19T05:07:24;100406.50;;;15.86;67.74
56400;BME280;42298;53.638;9.876;2023-09-19T05:09:51;100402.78;;;15.87;67.76
56400;BME280;42298;53.638;9.876;2023-09-19T05:12:16;100402.38;;;15.83;67.48
56400;BME280;42298;53.638;9.876;2023-09-19T05:14:43;100411.66;;;15.81;67.53
56400;BME280;42298;53.638;9.876;2023-09-19T05:17:08;100416.00;;;15.82;67.40
56400;BME280;42298;53.638;9.876;2023-09-19T05:19:34;100411.84;;;15.79;67.29
56400;BME280;42298;53.638;9.876;2023-09-19T05:22:00;100405.44;;;15.73;67.38
56400;BME280;42298;53.638;9.876;2023-09-19T05:24:25;100411.66;;;15.74;67.38
56400;BME280;42298;53.638;9.876;2023-09-19T05:26:51;100417.84;;;15.75;67.35
56400;BME280;42298;53.638;9.876;2023-09-19T05:29:16;100414.09;;;15.76;67.44
56400;BME280;42298;53.638;9.876;2023-09-19T05:31:42;100410.34;;;15.70;66.95
56400;BME280;42298;53.638;9.876;2023-09-19T05:34:08;100427.94;;;15.72;67.67
56400;BME280;42298;53.638;9.876;2023-09-19T05:36:34;100411.97;;;15.64;67.13
56400;BME280;42298;53.638;9.876;2023-09-19T05:39:00;100410.75;;;15.67;66.98
56400;BME280;42298;53.638;9.876;2023-09-19T05:41:25;100405.16;;;15.62;67.49
56400;BME280;42298;53.638;9.876;2023-09-19T05:43:51;100422.53;;;15.66;67.28
56400;BME280;42298;53.638;9.876;2023-09-19T05:46:16;100427.47;;;15.62;67.27
56400;BME280;42298;53.638;9.876;2023-09-19T05:48:42;100435.72;;;15.67;67.22
56400;BME280;42298;53.638;9.876;2023-09-19T05:51:09;100426.47;;;15.70;67.39
56400;BME280;42298;53.638;9.876;2023-09-19T05:53:35;100430.16;;;15.69;67.21
56400;BME280;42298;53.638;9.876;2023-09-19T05:56:00;100433.50;;;15.71;67.16
56400;BME280;42298;53.638;9.876;2023-09-19T05:58:26;100444.47;;;15.76;67.36
56400;BME280;42298;53.638;9.876;2023-09-19T06:00:51;100436.03;;;15.79;67.25
56400;BME280;42298;53.638;9.876;2023-09-19T06:03:17;100434.97;;;15.80;67.47
56400;BME280;42298;53.638;9.876;2023-09-19T06:05:46;100436.88;;;15.93;67.34
56400;BME280;42298;53.638;9.876;2023-09-19T06:08:14;100441.63;;;15.98;67.15
56400;BME280;42298;53.638;9.876;2023-09-19T06:10:39;100422.66;;;15.99;67.20
56400;BME280;42298;53.638;9.876;2023-09-19T06:13:05;100441.84;;;16.09;67.00
56400;BME280;42298;53.638;9.876;2023-09-19T06:15:31;100447.25;;;16.23;66.71
56400;BME280;42298;53.638;9.876;2023-09-19T06:17:59;100442.50;;;16.25;66.46
56400;BME280;42298;53.638;9.876;2023-09-19T06:20:25;100439.63;;;16.26;66.65
56400;BME280;42298;53.638;9.876;2023-09-19T06:22:52;100456.78;;;16.32;66.62
56400;BME280;42298;53.638;9.876;2023-09-19T06:25:18;100447.69;;;16.33;66.36
56400;BME280;42298;53.638;9.876;2023-09-19T06:27:52;100454.09;;;16.32;66.32
56400;BME280;42298;53.638;9.876;2023-09-19T06:30:19;100462.78;;;16.34;66.22
56400;BME280;42298;53.638;9.876;2023-09-19T06:32:45;100469.19;;;16.33;66.00
56400;BME280;42298;53.638;9.876;2023-09-19T06:35:14;100466.69;;;16.25;66.23
56400;BME280;42298;53.638;9.876;2023-09-19T06:37:41;100468.97;;;16.28;65.95
56400;BME280;42298;53.638;9.876;2023-09-19T06:40:10;100470.84;;;16.21;66.21
56400;BME280;42298;53.638;9.876;2023-09-19T06:42:43;100470.84;;;16.27;66.33
56400;BME280;42298;53.638;9.876;2023-09-19T06:45:13;100466.50;;;16.26;66.37
56400;BME280;42298;53.638;9.876;2023-09-19T06:47:43;100465.25;;;16.29;65.85
56400;BME280;42298;53.638;9.876;2023-09-19T06:50:09;100467.53;;;16.32;66.06
56400;BME280;42298;53.638;9.876;2023-09-19T06:52:39;100478.50;;;16.37;65.88
56400;BME280;42298;53.638;9.876;2023-09-19T06:55:05;100461.53;;;16.30;65.76
56400;BME280;42298;53.638;9.876;2023-09-19T06:57:31;100477.44;;;16.38;66.09
56400;BME280;42298;53.638;9.876;2023-09-19T06:59:57;100473.13;;;16.37;65.33
56400;BME280;42298;53.638;9.876;2023-09-19T07:02:22;100476.63;;;16.44;65.57
56400;BME280;42298;53.638;9.876;2023-09-19T07:04:48;100489.25;;;16.44;65.72
56400;BME280;42298;53.638;9.876;2023-09-19T07:07:14;100487.81;;;16.41;65.93
56400;BME280;42298;53.638;9.876;2023-09-19T07:09:40;100490.69;;;16.53;65.42
56400;BME280;42298;53.638;9.876;2023-09-19T07:12:07;100497.94;;;16.59;65.80
56400;BME280;42298;53.638;9.876;2023-09-19T07:14:32;100505.19;;;16.59;65.81
56400;BME280;42298;53.638;9.876;2023-09-19T07:16:57;100515.97;;;16.65;65.99
56400;BME280;42298;53.638;9.876;2023-09-19T07:19:25;100501.66;;;16.65;65.89
56400;BME280;42298;53.638;9.876;2023-09-19T07:21:53;100508.09;;;16.64;65.93
56400;BME280;42298;53.638;9.876;2023-09-19T07:24:18;100507.28;;;16.70;66.12
56400;BME280;42298;53.638;9.876;2023-09-19T07:26:45;100502.91;;;16.62;65.46
56400;BME280;42298;53.638;9.876;2023-09-19T07:29:10;100501.66;;;16.65;66.03
56400;BME280;42298;53.638;9.876;2023-09-19T07:31:36;100518.66;;;16.72;66.06
56400;BME280;42298;53.638;9.876;2023-09-19T07:34:01;100518.66;;;16.72;65.61
56400;BME280;42298;53.638;9.876;2023-09-19T07:36:29;100529.19;;;16.73;65.65
56400;BME280;42298;53.638;9.876;2023-09-19T07:38:54;100526.28;;;16.68;66.10
56400;BME280;42298;53.638;9.876;2023-09-19T07:41:20;100528.78;;;16.76;65.16
56400;BME280;42298;53.638;9.876;2023-09-19T07:43:46;100526.72;;;16.72;65.57
56400;BME280;42298;53.638;9.876;2023-09-19T07:46:11;100528.97;;;16.75;65.85
56400;BME280;42298;53.638;9.876;2023-09-19T07:48:37;100529.81;;;16.75;65.18
56400;BME280;42298;53.638;9.876;2023-09-19T07:51:05;100519.03;;;16.69;65.72
56400;BME280;42298;53.638;9.876;2023-09-19T07:53:31;100515.97;;;16.65;64.95
56400;BME280;42298;53.638;9.876;2023-09-19T07:56:07;100521.53;;;16.64;63.20
56400;BME280;42298;53.638;9.876;2023-09-19T07:58:33;100511.41;;;16.59;63.00
56400;BME280;42298;53.638;9.876;2023-09-19T08:01:03;100526.09;;;16.63;62.68
56400;BME280;42298;53.638;9.876;2023-09-19T08:03:29;100515.31;;;16.57;62.90
56400;BME280;42298;53.638;9.876;2023-09-19T08:05:56;100528.16;;;16.61;63.81
56400;BME280;42298;53.638;9.876;2023-09-19T08:08:23;100532.47;;;16.62;63.89
56400;BME280;42298;53.638;9.876;2023-09-19T08:10:53;100516.34;;;16.62;64.03
56400;BME280;42298;53.638;9.876;2023-09-19T08:13:18;100525.03;;;16.64;64.26
56400;BME280;42298;53.638;9.876;2023-09-19T08:15:44;100530.41;;;16.71;64.48
56400;BME280;42298;53.638;9.876;2023-09-19T08:18:09;100529.59;;;16.70;64.81
56400;BME280;42298;53.638;9.876;2023-09-19T08:20:38;100530.03;;;16.74;65.10
56400;BME280;42298;53.638;9.876;2023-09-19T08:23:03;100531.47;;;16.70;65.24
56400;BME280;42298;53.638;9.876;2023-09-19T08:25:29;100528.34;;;16.66;65.45
56400;BME280;42298;53.638;9.876;2023-09-19T08:27:54;100528.97;;;16.68;65.45
56400;BME280;42298;53.638;9.876;2023-09-19T08:30:24;100533.34;;;16.69;65.86
56400;BME280;42298;53.638;9.876;2023-09-19T08:32:50;100543.03;;;16.77;65.22
56400;BME280;42298;53.638;9.876;2023-09-19T08:35:15;100533.53;;;16.74;65.12
56400;BME280;42298;53.638;9.876;2023-09-19T08:37:42;100537.66;;;16.77;65.05
56400;BME280;42298;53.638;9.876;2023-09-19T08:40:08;100539.72;;;16.75;65.49
56400;BME280;42298;53.638;9.876;2023-09-19T08:42:47;100537.91;;;16.82;65.31
56400;BME280;42298;53.638;9.876;2023-09-19T08:45:14;100526.94;;;16.84;64.85
56400;BME280;42298;53.638;9.876;2023-09-19T08:47:46;100536.47;;;16.80;64.84
56400;BME280;42298;53.638;9.876;2023-09-19T08:50:19;100544.72;;;16.85;64.43
56400;BME280;42298;53.638;9.876;2023-09-19T08:52:46;100542.47;;;16.82;64.75
56400;BME280;42298;53.638;9.876;2023-09-19T08:55:13;100529.44;;;16.85;64.50
56400;BME280;42298;53.638;9.876;2023-09-19T08:57:46;100529.63;;;16.90;63.96
56400;BME280;42298;53.638;9.876;2023-09-19T09:00:14;100547.03;;;16.94;63.64
56400;BME280;42298;53.638;9.876;2023-09-19T09:02:42;100555.72;;;16.96;63.76
56400;BME280;42298;53.638;9.876;2023-09-19T09:05:09;100552.81;;;17.05;63.16
56400;BME280;42298;53.638;9.876;2023-09-19T09:07:36;100568.13;;;17.04;63.55
56400;BME280;42298;53.638;9.876;2023-09-19T09:10:03;100560.88;;;17.11;63.41
56400;BME280;42298;53.638;9.876;2023-09-19T09:12:29;100566.47;;;17.16;63.45
56400;BME280;42298;53.638;9.876;2023-09-19T09:14:55;100565.66;;;17.16;62.50
56400;BME280;42298;53.638;9.876;2023-09-19T09:17:22;100558.19;;;17.11;62.99
56400;BME280;42298;53.638;9.876;2023-09-19T09:19:48;100569.34;;;17.22;62.66
56400;BME280;42298;53.638;9.876;2023-09-19T09:22:13;100565.63;;;17.29;62.11
56400;BME280;42298;53.638;9.876;2023-09-19T09:24:55;100563.56;;;17.31;62.12
56400;BME280;42298;53.638;9.876;2023-09-19T09:27:26;100550.50;;;17.35;61.28
56400;BME280;42298;53.638;9.876;2023-09-19T09:29:52;100571.63;;;17.45;61.34
56400;BME280;42298;53.638;9.876;2023-09-19T09:32:21;100554.00;;;17.42;61.38
56400;BME280;42298;53.638;9.876;2023-09-19T09:34:52;100554.63;;;17.44;61.17
56400;BME280;42298;53.638;9.876;2023-09-19T09:37:19;100566.81;;;17.60;61.95
56400;BME280;42298;53.638;9.876;2023-09-19T09:39:59;100572.56;;;17.70;61.46
56400;BME280;42298;53.638;9.876;2023-09-19T09:42:43;100579.63;;;17.85;60.54
56400;BME280;42298;53.638;9.876;2023-09-19T09:45:15;100583.13;;;17.92;59.90
56400;BME280;42298;53.638;9.876;2023-09-19T09:47:46;100569.22;;;17.95;59.69
56400;BME280;42298;53.638;9.876;2023-09-19T09:50:31;100572.50;;;18.04;59.18
56400;BME280;42298;53.638;9.876;2023-09-19T09:53:24;100577.84;;;18.10;58.39
56400;BME280;42298;53.638;9.876;2023-09-19T09:58:26;100584.00;;;18.24;58.99
56400;BME280;42298;53.638;9.876;2023-09-19T10:00:55;100577.72;;;18.37;58.00
56400;BME280;42298;53.638;9.876;2023-09-19T10:03:34;100565.53;;;18.28;56.80
56400;BME280;42298;53.638;9.876;2023-09-19T10:06:07;100583.97;;;18.31;57.47
56400;BME280;42298;53.638;9.876;2023-09-19T10:09:06;100577.16;;;18.28;57.04
56400;BME280;42298;53.638;9.876;2023-09-19T10:12:06;100581.63;;;18.41;58.03
56400;BME280;42298;53.638;9.876;2023-09-19T10:14:35;100566.47;;;18.47;57.57
56400;BME280;42298;53.638;9.876;2023-09-19T10:17:05;100576.94;;;18.61;57.95
56400;BME280;42298;53.638;9.876;2023-09-19T10:19:37;100578.38;;;18.71;56.74
56400;BME280;42298;53.638;9.876;2023-09-19T10:22:05;100569.63;;;18.75;55.82
56400;BME280;42298;53.638;9.876;2023-09-19T10:24:35;100569.66;;;18.69;55.16
56400;BME280;42298;53.638;9.876;2023-09-19T10:27:02;100575.22;;;18.74;55.84
56400;BME280;42298;53.638;9.876;2023-09-19T10:29:32;100567.94;;;18.81;55.50
56400;BME280;42298;53.638;9.876;2023-09-19T10:32:01;100567.81;;;18.94;54.87
56400;BME280;42298;53.638;9.876;2023-09-19T10:34:34;100558.69;;;18.95;54.69
56400;BME280;42298;53.638;9.876;2023-09-19T10:37:02;100573.56;;;19.05;54.35
56400;BME280;42298;53.638;9.876;2023-09-19T10:39:32;100574.78;;;19.09;53.46
56400;BME280;42298;53.638;9.876;2023-09-19T10:42:02;100558.66;;;19.02;52.45
56400;BME280;42298;53.638;9.876;2023-09-19T10:44:32;100572.75;;;19.04;53.31
56400;BME280;42298;53.638;9.876;2023-09-19T10:46:58;100562.78;;;19.05;53.09
56400;BME280;42298;53.638;9.876;2023-09-19T10:49:24;100564.84;;;19.02;53.11
56400;BME280;42298;53.638;9.876;2023-09-19T10:51:54;100560.69;;;19.07;53.83
56400;BME280;42298;53.638;9.876;2023-09-19T10:54:22;100564.34;;;19.12;53.80
56400;BME280;42298;53.638;9.876;2023-09-19T10:56:52;100560.16;;;19.16;52.66
56400;BME280;42298;53.638;9.876;2023-09-19T10:59:19;100574.41;;;19.23;51.95
56400;BME280;42298;53.638;9.876;2023-09-19T11:07:05;100564.84;;;19.02;52.89
56400;BME280;42298;53.638;9.876;2023-09-19T11:09:55;100569.66;;;19.00;52.66
56400;BME280;42298;53.638;9.876;2023-09-19T11:14:54;100574.16;;;19.07;53.40
56400;BME280;42298;53.638;9.876;2023-09-19T11:30:50;100553.31;;;19.39;52.69
56400;BME280;42298;53.638;9.876;2023-09-19T11:33:19;100570.56;;;19.56;53.04
56400;BME280;42298;53.638;9.876;2023-09-19T11:36:12;100563.28;;;19.57;52.11
56400;BME280;42298;53.638;9.876;2023-09-19T11:49:17;100554.97;;;19.58;51.06
56400;BME280;42298;53.638;9.876;2023-09-19T11:51:50;100554.25;;;19.70;51.74
56400;BME280;42298;53.638;9.876;2023-09-19T11:54:17;100551.25;;;19.78;51.95
56400;BME280;42298;53.638;9.876;2023-09-19T11:56:54;100554.00;;;19.90;51.55
56400;BME280;42298;53.638;9.876;2023-09-19T11:59:31;100573.09;;;19.95;51.30
56400;BME280;42298;53.638;9.876;2023-09-19T12:02:01;100547.88;;;19.82;50.29
56400;BME280;42298;53.638;9.876;2023-09-19T12:04:37;100554.63;;;19.73;50.54
56400;BME280;42298;53.638;9.876;2023-09-19T12:07:04;100556.75;;;19.71;50.35
56400;BME280;42298;53.638;9.876;2023-09-19T12:09:29;100554.28;;;19.63;50.85
56400;BME280;42298;53.638;9.876;2023-09-19T12:11:55;100544.78;;;19.60;50.63
56400;BME280;42298;53.638;9.876;2023-09-19T12:14:25;100548.28;;;19.61;50.94
56400;BME280;42298;53.638;9.876;2023-09-19T12:16:57;100544.38;;;19.57;50.54
56400;BME280;42298;53.638;9.876;2023-09-19T12:19:24;100544.63;;;19.55;50.65
56400;BME280;42298;53.638;9.876;2023-09-19T12:21:56;100548.47;;;19.66;50.24
56400;BME280;42298;53.638;9.876;2023-09-19T12:24:29;100547.84;;;19.64;50.85
56400;BME280;42298;53.638;9.876;2023-09-19T12:27:02;100553.00;;;19.65;50.48
56400;BME280;42298;53.638;9.876;2023-09-19T12:29:30;100553.22;;;19.71;51.12
56400;BME280;42298;53.638;9.876;2023-09-19T12:31:57;100553.81;;;19.73;49.26
56400;BME280;42298;53.638;9.876;2023-09-19T12:34:28;100554.31;;;19.81;49.49
56400;BME280;42298;53.638;9.876;2023-09-19T12:37:26;100551.19;;;19.84;49.55
56400;BME280;42298;53.638;9.876;2023-09-19T12:40:04;100547.66;;;19.84;49.70
56400;BME280;42298;53.638;9.876;2023-09-19T12:42:40;100527.72;;;19.97;49.40
56400;BME280;42298;53.638;9.876;2023-09-19T12:45:07;100535.25;;;19.95;47.86
56400;BME280;42298;53.638;9.876;2023-09-19T12:47:35;100550.53;;;20.01;48.03
56400;BME280;42298;53.638;9.876;2023-09-19T12:50:07;100558.34;;;20.09;48.54
56400;BME280;42298;53.638;9.876;2023-09-19T12:52:39;100553.75;;;20.10;47.39
56400;BME280;42298;53.638;9.876;2023-09-19T12:55:05;100539.56;;;20.14;48.63
56400;BME280;42298;53.638;9.876;2023-09-19T12:57:33;100547.38;;;20.22;48.11
56400;BME280;42298;53.638;9.876;2023-09-19T13:00:03;100532.78;;;20.23;47.78
56400;BME280;42298;53.638;9.876;2023-09-19T13:02:31;100524.09;;;20.21;45.89
56400;BME280;42298;53.638;9.876;2023-09-19T13:04:56;100531.91;;;20.11;47.17
56400;BME280;42298;53.638;9.876;2023-09-19T13:07:44;100522.00;;;20.05;47.67
56400;BME280;42298;53.638;9.876;2023-09-19T13:10:11;100520.19;;;20.17;48.17
56400;BME280;42298;53.638;9.876;2023-09-19T13:12:40;100524.09;;;20.21;47.54
56400;BME280;42298;53.638;9.876;2023-09-19T13:15:11;100517.63;;;20.22;46.97
56400;BME280;42298;53.638;9.876;2023-09-19T13:17:43;100521.66;;;20.32;48.65
56400;BME280;42298;53.638;9.876;2023-09-19T13:20:21;100515.53;;;20.36;46.69
56400;BME280;42298;53.638;9.876;2023-09-19T13:22:49;100519.75;;;20.32;46.38
56400;BME280;42298;53.638;9.876;2023-09-19T13:25:19;100519.16;;;20.30;46.40
56400;BME280;42298;53.638;9.876;2023-09-19T13:30:16;100512.50;;;20.33;47.14
56400;BME280;42298;53.638;9.876;2023-09-19T13:32:42;100510.38;;;20.35;47.34
56400;BME280;42298;53.638;9.876;2023-09-19T13:35:09;100502.41;;;20.40;48.81
56400;BME280;42298;53.638;9.876;2023-09-19T13:37:35;100496.38;;;20.38;47.02
56400;BME280;42298;53.638;9.876;2023-09-19T13:40:07;100494.00;;;20.30;47.28
56400;BME280;42298;53.638;9.876;2023-09-19T13:42:33;100492.00;;;20.25;47.81
56400;BME280;42298;53.638;9.876;2023-09-19T13:44:58;100489.06;;;20.26;47.26
56400;BME280;42298;53.638;9.876;2023-09-19T13:47:24;100479.44;;;20.31;47.56
56400;BME280;42298;53.638;9.876;2023-09-19T13:49:51;100466.03;;;20.36;46.94
56400;BME280;42298;53.638;9.876;2023-09-19T13:52:21;100479.88;;;20.27;46.32